Time;durP1;ratioP1;P1;durP2;ratioP2;P2;SDS_P1;SDS_P2;PMS_P1;PMS_P2;Temp;Humidity;BMP_temperature;BMP_pressure;BME280_temperature;BME280_humidity;BME280_pressure;Samples;Min_cycle;Max_cycle;Signal;HPM_P1;HPM_P2
2023/05/03 00:02:09;;;;;;;;;13.33;12.33;;;;;15.80;87.11;102221.91;5046603;28;46485;-71
2023/05/03 00:04:35;;;;;;;;;17.00;15.00;;;;;15.80;87.45;102215.72;5044235;28;63399;-70
2023/05/03 00:07:01;;;;;;;;;12.33;12.33;;;;;15.78;87.75;102210.38;5049042;28;45456;-70
2023/05/03 00:09:26;;;;;;;;;13.00;13.00;;;;;15.80;87.80;102210.38;5051917;28;45384;-70
2023/05/03 00:11:52;;;;;;;;;17.67;16.00;;;;;15.80;88.44;102205.06;5047464;28;55982;-71
2023/05/03 00:14:18;;;;;;;;;14.33;14.33;;;;;15.77;88.25;102197.94;5057026;28;45208;-70
2023/05/03 00:16:43;;;;;;;;;17.67;14.00;;;;;15.77;88.31;102210.38;5055668;28;45304;-71
2023/05/03 00:19:08;;;;;;;;;13.00;13.00;;;;;15.73;88.16;102208.53;5052243;28;45318;-71
2023/05/03 00:21:34;;;;;;;;;16.67;14.33;;;;;15.70;88.03;102218.25;5056269;28;45929;-71
2023/05/03 00:23:59;;;;;;;;;15.33;12.67;;;;;15.66;87.79;102229.75;5050594;28;45472;-71
2023/05/03 00:26:25;;;;;;;;;18.00;13.67;;;;;15.65;88.15;102235.03;5047931;28;55964;-71
2023/05/03 00:28:51;;;;;;;;;19.33;15.00;;;;;15.66;88.22;102224.44;5048414;28;45443;-70
2023/05/03 00:31:16;;;;;;;;;14.67;12.00;;;;;15.64;88.26;102226.16;5043356;28;65464;-70
2023/05/03 00:33:42;;;;;;;;;17.00;14.00;;;;;15.64;88.42;102234.16;5046133;28;45269;-71
2023/05/03 00:36:14;;;;;;;;;15.33;11.00;;;;;15.61;88.99;102222.56;5041070;28;45328;-70
2023/05/03 00:38:40;;;;;;;;;14.67;14.33;;;;;15.60;88.95;102223.41;5048795;28;45408;-71
2023/05/03 00:41:09;;;;;;;;;13.67;13.67;;;;;15.59;88.76;102234.94;5065446;28;47728;-71
2023/05/03 00:43:36;;;;;;;;;13.33;13.33;;;;;15.55;88.92;102231.34;5051718;28;45495;-71
2023/05/03 00:46:02;;;;;;;;;14.67;14.00;;;;;15.51;89.13;102225.97;5045231;28;45338;-70
2023/05/03 00:48:28;;;;;;;;;15.00;15.00;;;;;15.50;89.32;102219.75;5046675;28;45148;-71
2023/05/03 00:50:55;;;;;;;;;19.00;17.00;;;;;15.49;89.24;102214.41;5055419;28;46802;-71
2023/05/03 00:53:21;;;;;;;;;14.33;13.00;;;;;15.45;89.11;102205.50;5045288;28;45319;-70
2023/05/03 00:55:47;;;;;;;;;16.00;15.50;;;;;15.43;88.99;102207.22;5043282;28;60034;-72
2023/05/03 00:58:13;;;;;;;;;14.67;14.00;;;;;15.40;89.03;102204.53;5040959;28;45552;-70
2023/05/03 01:00:38;;;;;;;;;12.50;12.25;;;;;15.38;88.80;102206.28;5046240;28;46390;-70
2023/05/03 01:03:03;;;;;;;;;15.67;12.67;;;;;15.35;88.62;102206.25;5039011;28;45350;-71
2023/05/03 01:05:33;;;;;;;;;18.33;15.67;;;;;15.34;89.03;102204.44;5049310;28;61868;-71
2023/05/03 01:08:42;;;;;;;;;19.00;14.67;;;;;15.31;89.51;102204.41;5042058;28;45490;-71
2023/05/03 01:11:15;;;;;;;;;14.33;11.67;;;;;15.29;88.62;102200.84;5039618;28;46557;-71
2023/05/03 01:13:53;;;;;;;;;17.67;14.33;;;;;15.22;88.86;102202.50;5056835;28;45342;-71
2023/05/03 01:16:34;;;;;;;;;16.00;15.33;;;;;15.21;88.90;102200.72;5056729;28;45273;-70
2023/05/03 01:19:03;;;;;;;;;14.00;12.33;;;;;15.19;89.10;102202.47;5053939;28;45384;-70
2023/05/03 01:21:32;;;;;;;;;11.67;10.33;;;;;15.14;89.19;102197.09;5051323;28;46730;-70
2023/05/03 01:24:13;;;;;;;;;12.33;12.00;;;;;15.15;89.51;102209.50;5049046;28;45481;-70
2023/05/03 01:26:38;;;;;;;;;13.33;11.33;;;;;15.10;89.08;102213.88;5055438;28;45380;-71
2023/05/03 01:29:04;;;;;;;;;16.33;12.33;;;;;15.06;89.40;102211.16;5044430;28;46325;-70
2023/05/03 01:32:03;;;;;;;;;17.00;12.33;;;;;15.04;89.64;102216.44;5052945;28;46774;-71
2023/05/03 01:34:57;;;;;;;;;11.67;11.67;;;;;15.00;89.48;102213.72;5056606;28;45420;-70
2023/05/03 01:37:22;;;;;;;;;15.00;12.00;;;;;14.97;89.97;102221.63;5171463;22;45571;-71
2023/05/03 01:39:53;;;;;;;;;14.33;13.00;;;;;14.92;89.87;102210.97;5056028;28;54460;-70
2023/05/03 01:42:19;;;;;;;;;11.00;11.00;;;;;14.86;89.38;102200.19;5051909;28;46562;-70
2023/05/03 01:44:46;;;;;;;;;14.00;9.67;;;;;14.84;89.57;102212.59;5051889;28;53467;-70
2023/05/03 01:47:13;;;;;;;;;12.00;10.67;;;;;14.80;89.62;102208.97;5056380;28;45315;-70
2023/05/03 01:49:39;;;;;;;;;13.33;12.33;;;;;14.79;89.40;102215.16;5050543;28;45491;-70
2023/05/03 01:52:05;;;;;;;;;16.67;11.67;;;;;14.80;89.42;102221.38;5044001;28;45589;-70
2023/05/03 01:54:30;;;;;;;;;18.00;13.00;;;;;14.78;89.13;102221.38;5042696;28;45669;-70
2023/05/03 01:56:56;;;;;;;;;15.33;13.00;;;;;14.74;89.05;102223.94;5048150;28;45372;-70
2023/05/03 01:59:21;;;;;;;;;13.67;11.33;;;;;14.71;89.27;102226.56;5046119;28;59137;-69
2023/05/03 02:01:46;;;;;;;;;16.00;9.67;;;;;14.65;89.14;102216.75;5041698;28;66477;-71
2023/05/03 02:04:12;;;;;;;;;13.00;11.33;;;;;14.64;89.24;102225.56;5050758;28;69794;-70
2023/05/03 02:06:37;;;;;;;;;11.00;9.67;;;;;14.62;89.17;102228.19;5050536;28;45385;-71
2023/05/03 02:09:02;;;;;;;;;14.00;12.00;;;;;14.59;89.78;102220.16;5055996;28;45591;-70
2023/05/03 02:11:28;;;;;;;;;15.00;12.33;;;;;14.53;89.52;102214.75;5055296;28;53108;-71
2023/05/03 02:13:53;;;;;;;;;15.00;12.00;;;;;14.49;89.34;102215.59;5053436;28;45297;-70
2023/05/03 02:16:19;;;;;;;;;12.67;8.67;;;;;14.46;89.72;102209.28;5052377;28;45286;-70
2023/05/03 02:18:44;;;;;;;;;17.25;12.50;;;;;14.42;89.66;102206.56;5050599;28;45571;-71
2023/05/03 02:21:09;;;;;;;;;14.33;11.00;;;;;14.42;89.59;102214.53;5049824;28;66240;-70
2023/05/03 02:23:35;;;;;;;;;16.00;12.33;;;;;14.38;90.01;102207.41;5048782;28;45311;-71
2023/05/03 02:26:01;;;;;;;;;14.00;12.00;;;;;14.38;90.09;102222.41;5041849;28;45450;-71
2023/05/03 02:28:26;;;;;;;;;11.75;11.25;;;;;14.36;89.62;102225.06;5052730;28;45649;-70
2023/05/03 02:30:51;;;;;;;;;13.00;9.33;;;;;14.32;89.84;102222.31;5038192;28;67972;-71
2023/05/03 02:33:17;;;;;;;;;13.00;12.00;;;;;14.30;89.81;102218.75;5038685;28;64438;-70
2023/05/03 02:35:42;;;;;;;;;15.75;14.25;;;;;14.28;90.52;102224.03;5037138;28;61313;-70
2023/05/03 02:38:07;;;;;;;;;13.67;12.00;;;;;14.24;90.50;102218.63;5048021;28;60680;-70
2023/05/03 02:40:33;;;;;;;;;10.33;10.33;;;;;14.24;90.49;102218.63;5055526;28;46567;-70
2023/05/03 02:42:58;;;;;;;;;11.00;8.33;;;;;14.21;89.83;102214.16;5055791;28;58236;-71
2023/05/03 02:45:23;;;;;;;;;10.67;10.67;;;;;14.19;90.19;102218.56;5049201;28;45461;-71
2023/05/03 02:47:49;;;;;;;;;12.67;12.33;;;;;14.15;90.15;102214.94;5042557;28;45657;-70
2023/05/03 02:50:14;;;;;;;;;12.33;12.00;;;;;14.15;90.21;102224.66;5043521;28;67867;-71
2023/05/03 02:52:40;;;;;;;;;14.00;11.67;;;;;14.09;90.44;102209.50;5048392;28;45458;-71
2023/05/03 02:55:05;;;;;;;;;11.33;8.33;;;;;14.09;90.70;102220.13;5046743;28;64620;-71
2023/05/03 02:57:30;;;;;;;;;11.67;7.67;;;;;14.08;90.19;102217.47;5053329;28;45321;-70
2023/05/03 02:59:56;;;;;;;;;15.50;12.00;;;;;14.05;90.42;102218.28;5039082;28;47088;-70
2023/05/03 03:02:21;;;;;;;;;12.75;12.75;;;;;13.99;90.21;102218.16;5047987;28;45443;-70
2023/05/03 03:04:47;;;;;;;;;14.67;11.00;;;;;13.97;90.80;102217.25;5043150;28;45323;-71
2023/05/03 03:07:12;;;;;;;;;12.67;12.33;;;;;13.92;90.76;102208.31;5044468;28;45390;-71
2023/05/03 03:09:37;;;;;;;;;13.00;13.00;;;;;13.92;90.87;102215.38;5038784;28;69303;-70
2023/05/03 03:12:03;;;;;;;;;11.50;9.75;;;;;13.90;90.94;102217.97;5043240;28;45350;-70
2023/05/03 03:14:29;;;;;;;;;12.00;10.00;;;;;13.86;91.10;102201.13;5041603;28;45346;-70
2023/05/03 03:16:54;;;;;;;;;13.25;13.25;;;;;13.83;91.08;102200.16;5052587;28;45299;-70
2023/05/03 03:19:20;;;;;;;;;14.00;13.00;;;;;13.81;91.52;102196.59;5048289;28;47416;-70
2023/05/03 03:21:45;;;;;;;;;15.00;12.25;;;;;13.78;91.81;102191.19;5037657;28;45310;-70
2023/05/03 03:24:10;;;;;;;;;13.25;13.00;;;;;13.78;91.68;102183.25;5040351;28;62181;-70
2023/05/03 03:26:36;;;;;;;;;19.75;12.50;;;;;13.76;91.84;102179.66;5045531;28;45287;-71
2023/05/03 03:29:01;;;;;;;;;13.00;12.00;;;;;13.75;91.46;102175.22;5050793;28;45742;-71
2023/05/03 03:31:26;;;;;;;;;13.00;12.25;;;;;13.70;91.49;102174.25;5051709;28;45383;-69
2023/05/03 03:33:52;;;;;;;;;12.00;11.00;;;;;13.68;91.59;102174.19;5048357;28;45212;-70
2023/05/03 03:36:17;;;;;;;;;16.00;13.00;;;;;13.66;92.21;102173.28;5055116;28;45180;-69
2023/05/03 03:38:42;;;;;;;;;10.75;9.75;;;;;13.65;92.47;102167.94;5041523;28;46778;-70
2023/05/03 03:41:08;;;;;;;;;16.50;12.00;;;;;13.62;92.54;102182.03;5044133;28;64976;-71
2023/05/03 03:43:33;;;;;;;;;14.00;12.50;;;;;13.60;92.56;102168.75;5052326;28;45339;-71
2023/05/03 03:45:59;;;;;;;;;12.50;11.50;;;;;13.57;92.20;102173.09;5057201;28;62966;-71
2023/05/03 03:48:24;;;;;;;;;13.50;12.00;;;;;13.55;92.57;102166.88;5040360;28;47456;-70
2023/05/03 03:50:50;;;;;;;;;14.00;13.00;;;;;13.51;92.48;102165.91;5051190;28;45325;-70
2023/05/03 03:53:15;;;;;;;;;20.00;15.50;;;;;13.49;92.65;102167.63;5057347;28;58134;-70
2023/05/03 03:55:40;;;;;;;;;15.00;13.25;;;;;13.49;93.25;102172.94;5059714;28;45276;-70
2023/05/03 03:58:06;;;;;;;;;17.00;13.00;;;;;13.46;93.27;102169.31;5055870;28;69534;-71
2023/05/03 04:00:33;;;;;;;;;17.50;13.50;;;;;13.43;93.14;102169.28;5057310;28;62341;-71
2023/05/03 04:02:58;;;;;;;;;19.00;11.75;;;;;13.40;93.31;102170.09;5051647;28;45462;-71
2023/05/03 04:05:23;;;;;;;;;12.00;12.00;;;;;13.39;92.94;102162.13;5055158;28;58427;-71
2023/05/03 04:07:49;;;;;;;;;18.75;14.25;;;;;13.39;93.05;102165.66;5053425;28;45951;-69
2023/05/03 04:10:14;;;;;;;;;19.25;15.25;;;;;13.36;93.33;102166.47;5053030;28;45385;-70
2023/05/03 04:12:40;;;;;;;;;17.75;13.00;;;;;13.36;93.79;102168.22;5053280;28;52671;-70
2023/05/03 04:15:06;;;;;;;;;16.75;13.25;;;;;13.35;93.66;102169.09;5052746;28;45411;-70
2023/05/03 04:17:33;;;;;;;;;13.75;13.75;;;;;13.34;93.56;102173.50;5046268;28;45988;-70
2023/05/03 04:19:59;;;;;;;;;15.00;12.50;;;;;13.32;94.18;102164.66;5049692;28;45131;-70
2023/05/03 04:22:24;;;;;;;;;17.75;14.00;;;;;13.31;93.86;102172.53;5054781;28;45305;-70
2023/05/03 04:24:49;;;;;;;;;17.50;14.25;;;;;13.30;93.87;102170.75;5041414;28;45301;-70
2023/05/03 04:27:17;;;;;;;;;13.25;11.00;;;;;13.31;94.21;102168.13;5040595;28;46140;-70
2023/05/03 04:29:42;;;;;;;;;19.00;14.75;;;;;13.28;93.94;102168.09;5047479;28;45494;-72
2023/05/03 04:32:08;;;;;;;;;17.25;12.50;;;;;13.28;94.20;102173.38;5055144;28;45272;-72
2023/05/03 04:34:34;;;;;;;;;13.50;11.25;;;;;13.28;93.99;102168.09;5056610;28;45346;-72
2023/05/03 04:36:59;;;;;;;;;12.75;12.00;;;;;13.24;94.35;102160.91;5051778;28;45863;-71
2023/05/03 04:39:25;;;;;;;;;16.75;12.75;;;;;13.27;94.53;102173.38;5053763;28;45305;-72
2023/05/03 04:41:50;;;;;;;;;17.00;14.50;;;;;13.26;94.47;102166.25;5047315;28;45637;-72
2023/05/03 04:44:16;;;;;;;;;17.50;12.75;;;;;13.22;94.75;102160.00;5052082;28;45498;-72
2023/05/03 04:46:42;;;;;;;;;15.00;13.00;;;;;13.23;94.50;102172.41;5047559;28;45984;-72
2023/05/03 04:49:07;;;;;;;;;13.50;12.00;;;;;13.22;95.07;102177.69;5045526;28;45157;-71
2023/05/03 04:51:32;;;;;;;;;13.50;13.00;;;;;13.21;95.12;102170.53;5044012;28;45323;-71
2023/05/03 04:53:58;;;;;;;;;15.50;13.00;;;;;13.21;95.51;102173.16;5050325;28;45978;-72
2023/05/03 04:56:26;;;;;;;;;11.75;10.75;;;;;13.19;95.24;102174.91;5042204;28;45972;-72
2023/05/03 04:58:52;;;;;;;;;14.75;12.50;;;;;13.20;95.35;102177.59;5039017;28;45470;-72
2023/05/03 05:01:18;;;;;;;;;16.00;12.50;;;;;13.18;95.21;102176.66;5047557;28;45421;-72
2023/05/03 05:03:43;;;;;;;;;17.25;13.50;;;;;13.14;95.50;102161.53;5057302;28;45306;-72
2023/05/03 05:06:11;;;;;;;;;13.75;11.00;;;;;13.16;95.76;102170.44;5055895;28;45500;-72
2023/05/03 05:08:36;;;;;;;;;14.50;12.00;;;;;13.17;95.95;102168.69;5057351;28;45409;-72
2023/05/03 05:11:05;;;;;;;;;13.75;12.50;;;;;13.18;96.07;102179.31;5053274;28;45567;-72
2023/05/03 05:13:30;;;;;;;;;15.50;14.00;;;;;13.18;95.83;102181.97;5058074;28;45475;-72
2023/05/03 05:15:55;;;;;;;;;16.50;14.00;;;;;13.18;96.25;102175.78;5051781;28;45560;-73
2023/05/03 05:18:21;;;;;;;;;13.25;11.75;;;;;13.17;95.93;102181.94;5051110;28;45414;-72
2023/05/03 05:20:46;;;;;;;;;14.25;11.50;;;;;13.15;96.58;102170.38;5045641;28;45342;-72
2023/05/03 05:23:11;;;;;;;;;17.25;15.00;;;;;13.17;96.35;102177.53;5039908;28;45574;-72
2023/05/03 05:25:37;;;;;;;;;21.50;16.25;;;;;13.17;96.57;102166.03;5040273;28;67993;-72
2023/05/03 05:28:02;;;;;;;;;11.75;10.00;;;;;13.18;96.57;102178.44;5037672;28;63942;-71
2023/05/03 05:30:28;;;;;;;;;19.25;16.25;;;;;13.17;96.91;102163.38;5052521;28;45357;-72
2023/05/03 05:32:53;;;;;;;;;13.50;11.75;;;;;13.17;97.23;102166.94;5056732;28;45299;-72
2023/05/03 05:35:18;;;;;;;;;16.75;13.00;;;;;13.18;97.07;102168.72;5052275;28;66087;-72
2023/05/03 05:37:44;;;;;;;;;15.75;15.00;;;;;13.21;97.20;102170.53;5042777;28;45313;-72
2023/05/03 05:40:10;;;;;;;;;14.75;11.50;;;;;13.23;97.68;102180.34;5061903;28;59220;-72
2023/05/03 05:42:35;;;;;;;;;18.00;15.00;;;;;13.27;97.70;102183.97;5050340;28;45435;-71
2023/05/03 05:45:01;;;;;;;;;13.67;13.00;;;;;13.29;97.42;102183.13;5048941;28;46063;-72
2023/05/03 05:47:26;;;;;;;;;13.33;11.33;;;;;13.31;97.38;102193.75;5045617;28;45387;-72
2023/05/03 05:49:51;;;;;;;;;14.50;11.75;;;;;13.30;97.85;102184.03;5046731;28;45268;-72
2023/05/03 05:52:17;;;;;;;;;15.25;12.75;;;;;13.31;97.93;102183.16;5041880;28;50745;-71
2023/05/03 05:54:42;;;;;;;;;14.25;14.25;;;;;13.35;97.53;102182.38;5053055;28;46371;-72
2023/05/03 05:57:07;;;;;;;;;21.25;15.25;;;;;13.34;97.83;102185.88;5047735;28;45303;-72
2023/05/03 05:59:33;;;;;;;;;16.50;13.75;;;;;13.37;97.45;102193.94;5052233;28;62717;-72
2023/05/03 06:01:59;;;;;;;;;14.00;14.00;;;;;13.36;96.79;102193.00;5054146;28;46065;-71
2023/05/03 06:04:25;;;;;;;;;17.75;13.00;;;;;13.37;96.85;102201.88;5053187;28;45865;-71
2023/05/03 06:06:50;;;;;;;;;15.50;13.25;;;;;13.39;96.52;102192.19;5057389;28;45317;-72
2023/05/03 06:09:15;;;;;;;;;15.50;15.50;;;;;13.38;96.28;102194.81;5055423;28;46132;-72
2023/05/03 06:11:42;;;;;;;;;16.33;14.00;;;;;13.40;96.56;102193.09;5055362;28;45439;-73
2023/05/03 06:14:08;;;;;;;;;14.67;13.00;;;;;13.44;96.93;102201.16;5056097;28;46817;-71
2023/05/03 06:16:35;;;;;;;;;13.50;13.00;;;;;13.44;96.63;102195.84;5050252;28;45485;-72
2023/05/03 06:19:01;;;;;;;;;14.33;12.00;;;;;13.48;96.78;102200.34;5051338;28;45327;-72
2023/05/03 06:21:27;;;;;;;;;15.33;14.00;;;;;13.49;97.03;102198.59;5043178;28;45594;-73
2023/05/03 06:23:52;;;;;;;;;17.50;14.50;;;;;13.48;96.64;102200.34;5041872;28;46034;-71
2023/05/03 06:26:17;;;;;;;;;17.25;13.50;;;;;13.50;96.92;102195.06;5036301;28;65235;-72
2023/05/03 06:28:44;;;;;;;;;15.25;11.00;;;;;13.51;97.29;102194.19;5051050;28;56867;-71
2023/05/03 06:31:10;;;;;;;;;17.00;13.75;;;;;13.52;97.14;102188.03;5056442;28;45126;-72
2023/05/03 06:33:35;;;;;;;;;19.00;14.50;;;;;13.51;97.58;102176.50;5053424;28;46543;-72
2023/05/03 06:36:01;;;;;;;;;16.50;13.00;;;;;13.56;97.30;102182.81;5055482;28;45760;-71
2023/05/03 06:38:26;;;;;;;;;15.25;14.25;;;;;13.60;97.18;102179.38;5042217;28;64605;-72
2023/05/03 06:40:51;;;;;;;;;15.25;13.50;;;;;13.67;97.59;102179.47;5049041;28;45419;-72
2023/05/03 06:43:17;;;;;;;;;18.50;14.50;;;;;13.71;97.60;102184.00;5049957;28;46609;-72
2023/05/03 06:45:43;;;;;;;;;15.25;13.75;;;;;13.73;97.89;102188.44;5044827;28;45553;-72
2023/05/03 06:48:08;;;;;;;;;13.00;13.00;;;;;13.75;97.52;102188.50;5046475;28;45494;-72
2023/05/03 06:50:34;;;;;;;;;22.00;16.00;;;;;13.72;97.66;102176.06;5057190;28;45466;-72
2023/05/03 06:53:00;;;;;;;;;15.25;13.50;;;;;13.76;97.96;102172.59;5043741;28;46379;-71
2023/05/03 06:55:25;;;;;;;;;15.00;15.00;;;;;13.77;98.34;102181.44;5038285;28;66085;-72
2023/05/03 06:57:51;;;;;;;;;15.00;13.25;;;;;13.81;98.44;102183.31;5039336;28;45569;-71
2023/05/03 07:00:18;;;;;;;;;14.50;12.25;;;;;13.86;97.82;102171.03;5042552;28;45490;-72
2023/05/03 07:02:43;;;;;;;;;13.75;13.50;;;;;13.93;97.62;102169.38;5051060;28;45828;-72
2023/05/03 07:05:09;;;;;;;;;13.50;13.50;;;;;13.95;98.10;102162.31;5053715;28;45398;-71
2023/05/03 07:07:35;;;;;;;;;18.00;13.75;;;;;14.02;98.40;102165.13;5055767;28;45240;-73
2023/05/03 07:10:00;;;;;;;;;11.75;11.25;;;;;14.06;98.24;102159.00;5054491;28;45559;-72
2023/05/03 07:12:27;;;;;;;;;12.33;11.67;;;;;14.11;98.02;102157.34;5052509;28;49615;-72
2023/05/03 07:14:55;;;;;;;;;20.00;16.00;;;;;14.19;97.77;102162.75;5052493;28;45375;-71
2023/05/03 07:17:21;;;;;;;;;17.25;16.50;;;;;14.24;97.83;102166.41;5049895;28;45375;-72
2023/05/03 07:19:47;;;;;;;;;14.75;12.50;;;;;14.31;97.74;102162.97;5050801;28;45501;-72
2023/05/03 07:22:13;;;;;;;;;18.25;14.50;;;;;14.37;97.59;102160.41;5042854;28;46159;-71
2023/05/03 07:24:38;;;;;;;;;15.33;14.33;;;;;14.45;97.88;102160.56;5042215;28;45453;-72
2023/05/03 07:27:04;;;;;;;;;15.00;14.00;;;;;14.52;97.58;102157.16;5041703;28;59009;-72
2023/05/03 07:29:29;;;;;;;;;20.67;14.67;;;;;14.57;97.52;102152.78;5038939;28;45296;-71
2023/05/03 07:31:55;;;;;;;;;19.00;15.00;;;;;14.63;97.23;102149.34;5052742;28;46439;-71
2023/05/03 07:34:20;;;;;;;;;14.67;13.67;;;;;14.68;96.99;102148.53;5060795;28;54072;-71
2023/05/03 07:36:46;;;;;;;;;18.67;16.00;;;;;14.74;97.42;102136.22;5055831;28;45185;-71
2023/05/03 07:39:11;;;;;;;;;15.33;14.33;;;;;14.80;97.32;102139.84;5048664;28;45520;-72
2023/05/03 07:41:36;;;;;;;;;17.67;13.33;;;;;14.87;97.25;102138.19;5048644;28;69918;-71
2023/05/03 07:44:02;;;;;;;;;18.67;14.67;;;;;14.92;96.83;102133.84;5052949;28;45413;-72
2023/05/03 07:46:27;;;;;;;;;12.67;12.33;;;;;14.98;97.10;102123.28;5057050;28;45533;-72
2023/05/03 07:48:52;;;;;;;;;14.00;14.00;;;;;15.04;97.02;102123.34;5052049;28;45367;-72
2023/05/03 07:51:18;;;;;;;;;15.00;11.00;;;;;15.07;96.60;102110.06;5055568;28;63632;-71
2023/05/03 07:53:43;;;;;;;;;13.67;11.67;;;;;15.12;96.66;102112.78;5041911;28;64858;-71
2023/05/03 07:56:08;;;;;;;;;16.00;13.00;;;;;15.17;96.65;102101.34;5042306;28;45571;-73
2023/05/03 07:58:34;;;;;;;;;14.67;14.00;;;;;15.26;96.35;102102.34;5039576;28;62229;-73
2023/05/03 08:00:59;;;;;;;;;15.00;13.00;;;;;15.33;96.10;102096.19;5047926;28;54094;-72
2023/05/03 08:03:24;;;;;;;;;14.00;13.00;;;;;15.35;95.98;102097.13;5058537;28;45379;-72
2023/05/03 08:05:50;;;;;;;;;14.00;12.00;;;;;15.41;95.58;102099.84;5056639;28;60572;-72
2023/05/03 08:08:15;;;;;;;;;13.67;12.33;;;;;15.46;95.32;102099.03;5057937;28;45381;-72
2023/05/03 08:10:40;;;;;;;;;14.67;14.67;;;;;15.54;95.24;102098.22;5056513;28;65919;-72
2023/05/03 08:13:06;;;;;;;;;16.00;14.00;;;;;15.59;95.26;102088.50;5056337;28;45457;-72
2023/05/03 08:15:32;;;;;;;;;19.67;14.33;;;;;15.63;94.91;102090.38;5055097;28;53131;-71
2023/05/03 08:17:57;;;;;;;;;18.33;14.00;;;;;15.69;95.03;102090.44;5057870;28;45629;-73
2023/05/03 08:20:22;;;;;;;;;17.33;14.67;;;;;15.74;94.39;102087.81;5049184;28;46652;-72
2023/05/03 08:22:48;;;;;;;;;13.00;11.33;;;;;15.78;94.32;102084.31;5042592;28;45787;-69
2023/05/03 08:25:15;;;;;;;;;20.33;14.00;;;;;15.85;94.01;102086.13;5041298;28;62880;-71
2023/05/03 08:27:41;;;;;;;;;16.00;11.00;;;;;15.88;94.02;102080.84;5038999;28;45419;-72
2023/05/03 08:30:07;;;;;;;;;17.00;14.00;;;;;15.93;94.16;102082.69;5038562;28;54493;-72
2023/05/03 08:32:33;;;;;;;;;19.33;13.33;;;;;15.99;93.70;102084.50;5056726;28;45421;-73
2023/05/03 08:34:58;;;;;;;;;14.33;7.33;;;;;16.04;93.81;102081.88;5057455;28;45344;-73
2023/05/03 08:37:24;;;;;;;;;12.33;11.00;;;;;16.09;93.64;102081.03;5051393;28;45513;-72
2023/05/03 08:39:50;;;;;;;;;14.00;13.00;;;;;16.13;93.24;102072.16;5049766;28;45638;-71
2023/05/03 08:42:15;;;;;;;;;16.67;15.33;;;;;16.19;93.32;102079.31;5047124;28;45311;-72
2023/05/03 08:44:49;;;;;;;;;20.00;18.33;;;;;16.22;92.97;102066.03;5050982;28;45472;-72
2023/05/03 08:47:18;;;;;;;;;13.67;9.00;;;;;16.30;93.09;102074.06;5066281;28;45414;-72
2023/05/03 08:49:44;;;;;;;;;13.33;11.00;;;;;16.32;92.98;102070.56;5047093;28;45934;-72
2023/05/03 08:52:10;;;;;;;;;13.00;12.00;;;;;16.37;92.63;102067.91;5049929;28;45466;-72
2023/05/03 08:54:36;;;;;;;;;15.00;11.33;;;;;16.43;92.41;102063.50;5061609;28;45269;-73
2023/05/03 08:57:01;;;;;;;;;18.33;13.00;;;;;16.46;92.60;102049.34;5040669;28;45423;-72
2023/05/03 08:59:28;;;;;;;;;14.00;13.00;;;;;16.54;92.25;102058.25;5051493;28;46707;-72
2023/05/03 09:01:53;;;;;;;;;13.67;13.00;;;;;16.56;91.68;102058.25;5045995;28;45443;-70
2023/05/03 09:04:19;;;;;;;;;13.00;12.00;;;;;16.62;91.67;102071.63;5049567;28;62850;-72
2023/05/03 09:06:44;;;;;;;;;10.67;10.33;;;;;16.66;91.79;102065.41;5057283;28;45380;-69
2023/05/03 09:09:10;;;;;;;;;11.00;10.00;;;;;16.70;91.71;102068.13;5056333;28;60523;-72
2023/05/03 09:11:37;;;;;;;;;14.67;11.67;;;;;16.74;91.40;102055.75;5053514;28;61485;-70
2023/05/03 09:14:16;;;;;;;;;11.67;11.67;;;;;16.82;91.16;102059.31;5056458;28;45444;-72
2023/05/03 09:16:44;;;;;;;;;14.33;10.67;;;;;16.89;90.51;102054.94;5054904;28;45320;-70
2023/05/03 09:19:11;;;;;;;;;13.33;12.00;;;;;16.93;90.43;102054.91;5066999;28;46649;-71
2023/05/03 09:21:41;;;;;;;;;11.00;11.00;;;;;16.97;90.07;102058.50;5056969;28;45382;-70
2023/05/03 09:24:19;;;;;;;;;12.00;12.00;;;;;17.01;89.97;102060.31;5042423;28;45348;-73
2023/05/03 09:26:47;;;;;;;;;13.00;11.00;;;;;17.07;89.64;102054.09;5039339;28;45465;-72
2023/05/03 09:29:28;;;;;;;;;13.00;10.67;;;;;17.11;89.67;102056.78;5043428;28;46711;-73
2023/05/03 09:31:58;;;;;;;;;14.00;13.67;;;;;17.16;88.33;102048.81;5055509;28;45367;-72
2023/05/03 09:34:24;;;;;;;;;11.00;11.00;;;;;17.18;88.51;102050.56;5057027;28;45274;-72
2023/05/03 09:36:49;;;;;;;;;14.67;12.00;;;;;17.24;88.02;102044.38;5052624;28;45446;-72
2023/05/03 09:39:18;;;;;;;;;14.00;11.00;;;;;17.28;87.95;102048.84;5046849;28;45865;-72
2023/05/03 09:41:44;;;;;;;;;12.33;11.00;;;;;17.32;87.22;102050.63;5053628;28;45318;-72
2023/05/03 09:44:09;;;;;;;;;14.00;12.00;;;;;17.38;86.95;102044.41;5067170;28;45415;-72
2023/05/03 09:46:36;;;;;;;;;14.33;12.00;;;;;17.42;86.37;102051.56;5046215;28;45481;-72
2023/05/03 09:49:02;;;;;;;;;10.33;9.00;;;;;17.48;86.19;102051.56;5043886;28;46687;-73
2023/05/03 09:51:28;;;;;;;;;12.67;11.00;;;;;17.51;86.40;102043.53;5046126;28;45529;-72
2023/05/03 09:53:55;;;;;;;;;10.67;10.67;;;;;17.58;86.35;102044.44;5041399;28;45485;-73
2023/05/03 09:56:25;;;;;;;;;13.00;10.67;;;;;17.64;85.26;102041.78;5042704;28;45412;-73
2023/05/03 09:58:51;;;;;;;;;14.67;9.33;;;;;17.68;85.31;102038.22;5038349;28;46234;-73
2023/05/03 10:01:17;;;;;;;;;16.00;12.67;;;;;17.73;85.12;102036.47;5046330;28;45274;-72
2023/05/03 10:03:49;;;;;;;;;10.67;6.33;;;;;17.77;85.25;102027.56;5073184;28;45248;-73
2023/05/03 10:06:33;;;;;;;;;10.33;9.00;;;;;17.84;85.26;102036.47;5055644;28;45778;-71
2023/05/03 10:09:05;;;;;;;;;12.33;12.33;;;;;17.88;85.92;102023.13;5056118;28;45618;-72
2023/05/03 10:11:35;;;;;;;;;13.67;9.67;;;;;17.92;85.02;102022.25;5051781;28;45250;-73
2023/05/03 10:14:00;;;;;;;;;10.67;10.33;;;;;17.99;84.87;102021.34;5052574;28;45431;-72
2023/05/03 10:16:30;;;;;;;;;11.67;10.00;;;;;18.03;84.66;102025.78;5052557;28;45518;-72
2023/05/03 10:19:03;;;;;;;;;11.33;11.33;;;;;18.12;84.75;102016.88;5049658;28;46841;-73
2023/05/03 10:21:37;;;;;;;;;12.00;10.33;;;;;18.18;84.79;102008.84;5040361;28;45391;-73
2023/05/03 10:24:13;;;;;;;;;10.67;10.67;;;;;18.23;84.56;102011.53;5057164;28;45182;-73
2023/05/03 10:26:43;;;;;;;;;15.67;9.00;;;;;18.30;84.30;102005.25;5038776;28;45535;-74
2023/05/03 10:29:34;;;;;;;;;12.00;11.00;;;;;18.37;84.01;102001.66;5042094;28;46647;-72
2023/05/03 10:32:00;;;;;;;;;10.33;9.00;;;;;18.40;84.13;101990.97;5054341;28;45310;-73
2023/05/03 10:34:38;;;;;;;;;12.33;8.33;;;;;18.47;84.18;101997.19;5054768;28;45358;-73
2023/05/03 10:37:09;;;;;;;;;11.33;11.33;;;;;18.52;83.66;101988.25;5049853;28;45464;-72
2023/05/03 10:39:34;;;;;;;;;10.67;9.33;;;;;18.59;83.95;101992.72;5047834;28;46806;-70
2023/05/03 10:42:06;;;;;;;;;12.67;10.00;;;;;18.64;83.13;101990.00;5046736;28;45456;-73
2023/05/03 10:44:53;;;;;;;;;13.67;9.33;;;;;18.71;82.69;101986.44;5052951;28;45497;-72
2023/05/03 10:47:23;;;;;;;;;12.00;10.00;;;;;18.75;82.97;101968.56;5047287;28;45516;-73
2023/05/03 10:50:10;;;;;;;;;8.33;7.00;;;;;18.83;83.01;101970.31;5045308;28;45809;-73
2023/05/03 10:52:38;;;;;;;;;10.33;10.33;;;;;18.89;83.09;101965.84;5042728;28;45338;-73
2023/05/03 10:55:13;;;;;;;;;10.33;8.67;;;;;18.93;83.48;101952.44;5045450;28;45446;-72
2023/05/03 10:57:40;;;;;;;;;9.67;7.67;;;;;19.01;82.90;101949.69;5054614;28;45292;-73
2023/05/03 11:00:15;;;;;;;;;8.67;8.00;;;;;19.05;83.67;101949.69;5060715;28;48662;-72
2023/05/03 11:03:11;;;;;;;;;9.00;8.67;;;;;19.14;83.20;101951.44;5071017;28;45292;-73
2023/05/03 11:05:38;;;;;;;;;12.00;9.00;;;;;19.20;82.43;101951.38;5054863;28;45146;-73
2023/05/03 11:08:12;;;;;;;;;14.00;9.33;;;;;19.25;82.45;101944.19;5055801;28;45225;-73
2023/05/03 11:10:37;;;;;;;;;11.00;8.00;;;;;19.30;83.02;101931.66;5054625;28;45785;-72